Time;durP1;ratioP1;P1;durP2;ratioP2;P2;SDS_P1;SDS_P2;PMS_P1;PMS_P2;Temp;Humidity;BMP_temperature;BMP_pressure;BME280_temperature;BME280_humidity;BME280_pressure;Samples;Min_cycle;Max_cycle;Signal;HPM_P1;HPM_P2
2023/03/20 05:16:51;;;;;;;25.67;12.93;;;;;;;4.98;93.30;100343.13;5556669;32;251100;-84
2023/03/20 05:19:56;;;;;;;21.20;12.13;;;;;;;4.98;92.91;100355.41;5545297;32;34556;-84
2023/03/20 05:23:01;;;;;;;24.95;12.73;;;;;;;5.03;92.75;100363.16;5545485;32;34278;-84
2023/03/20 05:26:08;;;;;;;23.00;12.48;;;;;;;5.11;91.80;100361.19;5548316;32;34025;-83
2023/03/20 05:29:11;;;;;;;19.30;12.32;;;;;;;5.20;90.67;100358.31;5547700;32;33665;-84
2023/03/20 05:32:14;;;;;;;19.05;12.23;;;;;;;5.35;91.05;100364.03;5546652;32;34448;-83
2023/03/20 05:35:18;;;;;;;19.67;12.07;;;;;;;5.47;88.59;100368.09;5547729;32;34211;-83
2023/03/20 05:38:21;;;;;;;20.65;13.05;;;;;;;5.63;88.21;100369.37;5547483;32;34083;-82
2023/03/20 05:41:24;;;;;;;19.92;11.82;;;;;;;5.83;88.44;100367.06;5545535;32;34726;-83
2023/03/20 05:44:29;;;;;;;21.33;12.32;;;;;;;5.97;86.51;100370.13;5545565;32;33695;-83
2023/03/20 05:47:32;;;;;;;21.58;12.43;;;;;;;6.17;86.95;100363.41;5546058;32;34653;-83
2023/03/20 05:50:35;;;;;;;20.83;12.18;;;;;;;6.22;82.50;100369.41;5545884;32;33823;-83
2023/03/20 05:53:39;;;;;;;22.92;13.88;;;;;;;6.44;83.30;100366.09;5546171;32;34891;-83
2023/03/20 05:56:43;;;;;;;19.15;12.50;;;;;;;6.64;80.47;100362.78;5545266;32;33977;-83
2023/03/20 05:59:45;;;;;;;21.65;12.23;;;;;;;6.90;79.08;100374.22;5544714;32;34536;-83
2023/03/20 06:02:50;;;;;;;23.05;12.60;;;;;;;6.96;77.85;100374.00;5544773;32;33765;-83
2023/03/20 06:05:54;;;;;;;18.15;12.60;;;;;;;6.99;76.44;100375.69;5546015;32;34524;-83
2023/03/20 06:08:57;;;;;;;20.95;12.57;;;;;;;6.95;77.24;100379.34;5545340;32;34710;-84
2023/03/20 06:12:00;;;;;;;17.75;12.80;;;;;;;7.30;76.05;100382.50;5547652;32;34337;-83
2023/03/20 06:15:04;;;;;;;18.55;13.30;;;;;;;7.86;72.85;100384.88;5552430;32;33794;-83
2023/03/20 06:18:07;;;;;;;23.95;13.45;;;;;;;8.21;71.53;100386.13;5552681;32;33482;-83
2023/03/20 06:21:11;;;;;;;19.10;12.98;;;;;;;9.01;68.90;100390.88;5547161;32;33975;-84
2023/03/20 06:24:16;;;;;;;22.65;12.35;;;;;;;9.52;65.23;100383.34;5552558;32;33688;-84
2023/03/20 06:27:19;;;;;;;19.48;13.62;;;;;;;9.98;62.11;100390.09;5549182;32;34190;-84
2023/03/20 06:30:22;;;;;;;20.80;13.00;;;;;;;10.00;60.97;100388.22;5544742;32;33741;-84
2023/03/20 06:33:25;;;;;;;22.10;13.73;;;;;;;10.25;59.64;100385.28;5546799;32;35140;-84
2023/03/20 06:36:29;;;;;;;19.08;12.85;;;;;;;10.96;56.95;100393.34;5555042;32;35151;-84
2023/03/20 06:39:33;;;;;;;19.62;13.45;;;;;;;11.61;54.49;100385.59;5545418;32;33632;-84
2023/03/20 06:42:40;;;;;;;18.55;13.55;;;;;;;11.58;53.64;100387.44;5544049;32;34333;-84
2023/03/20 06:45:43;;;;;;;18.08;13.18;;;;;;;11.29;53.84;100395.19;5545181;32;34608;-84
2023/03/20 06:48:47;;;;;;;19.33;13.75;;;;;;;11.81;53.23;100403.09;5548501;32;33723;-84
2023/03/20 06:51:50;;;;;;;21.40;14.05;;;;;;;11.64;53.44;100404.00;5546956;32;35123;-88
2023/03/20 06:54:56;;;;;;;22.83;14.30;;;;;;;12.37;50.31;100411.56;5553746;32;35155;-88
2023/03/20 06:57:59;;;;;;;20.90;14.07;;;;;;;12.44;50.63;100403.22;5546126;32;34797;-87
2023/03/20 07:01:12;;;;;;;28.00;14.87;;;;;;;11.69;53.72;100397.53;5543150;32;34023;-86
2023/03/20 07:04:16;;;;;;;;;;;;;;;10.89;55.87;100405.19;5541880;32;35158;-85
2023/03/20 07:07:19;;;;;;;25.08;13.55;;;;;;;11.11;55.65;100402.31;5532820;32;34561;-85
2023/03/20 07:10:23;;;;;;;23.00;13.73;;;;;;;11.82;53.99;100403.00;5524218;32;33531;-85
2023/03/20 07:13:27;;;;;;;23.17;15.10;;;;;;;12.76;50.46;100401.34;5524933;32;33984;-86
2023/03/20 07:16:30;;;;;;;21.73;14.20;;;;;;;13.02;48.95;100398.12;5535973;32;34082;-86
2023/03/20 07:19:35;;;;;;;21.27;12.98;;;;;;;14.20;45.46;100409.56;5543755;32;34209;-87
2023/03/20 07:22:40;;;;;;;22.70;13.82;;;;;;;14.68;43.76;100405.56;5543743;32;34219;-86
2023/03/20 07:25:45;;;;;;;16.33;12.02;;;;;;;14.01;44.82;100405.41;5548466;32;35038;-86
2023/03/20 07:28:49;;;;;;;19.83;12.70;;;;;;;14.14;44.41;100396.63;5548350;32;35153;-85
2023/03/20 07:31:52;;;;;;;18.73;11.43;;;;;;;14.16;44.10;100405.38;5540530;32;34236;-85
2023/03/20 07:34:56;;;;;;;18.75;11.70;;;;;;;14.18;44.12;100407.94;5544799;32;33900;-85
2023/03/20 07:37:59;;;;;;;19.85;11.60;;;;;;;14.84;42.46;100401.91;5533510;32;34045;-85
2023/03/20 07:41:03;;;;;;;17.25;11.18;;;;;;;16.32;39.63;100396.97;5531864;32;33868;-85
2023/03/20 07:44:09;;;;;;;18.65;11.63;;;;;;;16.41;38.32;100404.34;5533843;32;34372;-86
2023/03/20 07:47:13;;;;;;;15.65;11.40;;;;;;;16.43;38.42;100403.28;5547376;32;32634;-86
2023/03/20 07:50:17;;;;;;;19.67;12.45;;;;;;;17.60;36.14;100405.19;5544134;32;34059;-85
2023/03/20 07:53:20;;;;;;;21.73;11.70;;;;;;;18.17;35.18;100405.16;5536561;32;34409;-84
2023/03/20 07:56:23;;;;;;;16.62;11.60;;;;;;;18.54;34.83;100406.66;5538879;32;34699;-84
2023/03/20 07:59:26;;;;;;;17.83;11.57;;;;;;;19.02;33.87;100409.00;5543176;32;33971;-85
2023/03/20 08:02:29;;;;;;;19.58;11.88;;;;;;;20.19;31.29;100406.06;5534869;32;33642;-84
2023/03/20 08:05:32;;;;;;;15.80;10.10;;;;;;;20.63;31.16;100410.22;5534342;32;34455;-85
2023/03/20 08:08:35;;;;;;;15.38;10.52;;;;;;;21.95;29.22;100405.12;5536446;32;34653;-84
2023/03/20 08:11:39;;;;;;;15.40;10.43;;;;;;;22.55;27.60;100413.72;5538549;32;33945;-85
2023/03/20 08:14:42;;;;;;;15.35;10.32;;;;;;;22.75;27.25;100406.31;5527565;32;33965;-85
2023/03/20 08:17:46;;;;;;;12.27;9.80;;;;;;;23.42;26.74;100408.53;5537205;32;33780;-86
2023/03/20 08:20:49;;;;;;;11.52;8.80;;;;;;;22.83;26.11;100414.50;5530244;32;33831;-86
2023/03/20 08:23:52;;;;;;;14.05;10.13;;;;;;;22.38;28.02;100415.41;5528954;32;33729;-86
2023/03/20 08:26:55;;;;;;;14.80;10.55;;;;;;;22.94;26.84;100408.00;5533829;32;33843;-87
2023/03/20 08:29:58;;;;;;;20.70;9.15;;;;;;;22.17;27.55;100416.53;5529107;32;34394;-87
2023/03/20 08:33:00;;;;;;;16.00;9.02;;;;;;;22.04;27.97;100408.78;5530982;32;34187;-86
2023/03/20 08:36:04;;;;;;;12.77;9.10;;;;;;;21.43;28.81;100408.28;5541039;32;33796;-87
2023/03/20 08:39:07;;;;;;;9.80;8.05;;;;;;;20.18;29.61;100412.41;5529448;32;34144;-85
2023/03/20 08:42:12;;;;;;;11.35;9.32;;;;;;;20.17;29.34;100409.87;5529660;32;35153;-85
2023/03/20 08:45:15;;;;;;;12.52;9.38;;;;;;;20.29;29.95;100413.31;5528852;32;34437;-84
2023/03/20 08:48:18;;;;;;;13.40;9.60;;;;;;;19.52;31.22;100417.25;5529538;32;34074;-85
2023/03/20 08:51:21;;;;;;;13.80;10.05;;;;;;;18.14;32.48;100421.53;5531470;32;34060;-88
2023/03/20 08:54:24;;;;;;;13.82;9.68;;;;;;;19.06;32.66;100421.25;5539094;32;33652;-87
2023/03/20 08:57:27;;;;;;;14.93;9.70;;;;;;;18.92;32.46;100423.25;5536574;32;34557;-87
2023/03/20 09:00:30;;;;;;;14.65;9.52;;;;;;;18.95;32.28;100425.66;5531366;32;33655;-87
2023/03/20 09:03:33;;;;;;;12.80;9.60;;;;;;;18.89;33.41;100422.63;5537053;32;34542;-85
2023/03/20 09:06:36;;;;;;;12.63;9.40;;;;;;;18.51;33.90;100419.50;5550844;32;34020;-84
2023/03/20 09:09:39;;;;;;;16.23;8.68;;;;;;;18.77;33.11;100428.06;5535500;32;33518;-84
2023/03/20 09:12:42;;;;;;;12.32;8.73;;;;;;;19.01;32.78;100424.28;5547078;32;34458;-86
2023/03/20 09:15:45;;;;;;;11.50;8.55;;;;;;;18.55;33.58;100426.28;5533138;32;34047;-85
2023/03/20 09:18:48;;;;;;;12.90;8.15;;;;;;;19.28;32.03;100430.16;5528928;32;33507;-85
2023/03/20 09:21:50;;;;;;;13.60;7.78;;;;;;;18.87;31.95;100430.84;5533014;32;33815;-84
2023/03/20 09:24:54;;;;;;;90.62;17.77;;;;;;;18.72;32.54;100424.91;5534021;32;34346;-86
2023/03/20 09:27:56;;;;;;;9.48;7.10;;;;;;;18.68;31.62;100428.81;5531082;32;34288;-86
2023/03/20 09:31:00;;;;;;;11.25;7.55;;;;;;;18.58;31.40;100429.59;5534722;32;34348;-87
2023/03/20 09:34:02;;;;;;;9.98;7.15;;;;;;;18.04;32.78;100432.12;5533281;32;34144;-86
2023/03/20 09:37:05;;;;;;;11.70;7.50;;;;;;;18.57;31.80;100419.81;5533403;32;33955;-86
2023/03/20 09:40:21;;;;;;;12.35;7.47;;;;;;;18.50;31.87;100428.53;5535505;32;33482;-85
2023/03/20 09:43:43;;;;;;;9.85;7.10;;;;;;;18.56;31.76;100420.81;5544109;32;33632;-85
2023/03/20 09:47:27;;;;;;;11.65;7.47;;;;;;;18.27;32.90;100426.75;5534193;32;33989;-85
2023/03/20 09:50:40;;;;;;;15.43;8.98;;;;;;;18.11;32.97;100415.56;5547170;32;33638;-85
2023/03/20 09:53:48;;;;;;;14.15;8.23;;;;;;;18.41;33.02;100416.72;5551997;32;34367;-85
2023/03/20 09:56:53;;;;;;;13.32;8.63;;;;;;;18.15;33.49;100414.34;5550803;32;34646;-85
2023/03/20 10:00:16;;;;;;;12.32;8.10;;;;;;;18.19;33.47;100418.47;5536292;32;34473;-85
2023/03/20 10:03:41;;;;;;;12.02;8.10;;;;;;;18.16;33.64;100419.56;5533400;32;33892;-85
2023/03/20 10:06:47;;;;;;;12.48;8.15;;;;;;;17.74;34.39;100420.19;5534113;32;33781;-84
2023/03/20 10:09:50;;;;;;;14.15;8.63;;;;;;;18.42;33.24;100413.03;5534354;32;33824;-83
2023/03/20 10:13:44;;;;;;;13.00;8.13;;;;;;;18.94;33.02;100412.34;5528297;32;34551;-84
2023/03/20 10:16:58;;;;;;;11.98;7.50;;;;;;;19.45;32.50;100410.72;5502263;32;34020;-84
2023/03/20 10:20:12;;;;;;;11.35;7.50;;;;;;;19.04;32.32;100407.06;5533759;32;34057;-84
2023/03/20 10:23:25;;;;;;;9.68;7.50;;;;;;;19.68;32.11;100415.94;5533521;32;33990;-82
2023/03/20 10:26:32;;;;;;;15.73;7.80;;;;;;;19.92;31.06;100412.88;5532005;32;34863;-83
2023/03/20 10:29:49;;;;;;;11.50;8.30;;;;;;;19.71;31.75;100410.25;5532796;32;34605;-83
2023/03/20 10:33:16;;;;;;;13.73;8.20;;;;;;;19.41;32.42;100411.13;5534484;32;34030;-83
2023/03/20 10:36:28;;;;;;;12.40;8.48;;;;;;;19.59;31.44;100414.03;5534247;32;34426;-84
2023/03/20 10:39:51;;;;;;;12.63;8.30;;;;;;;19.29;32.88;100403.13;5534625;32;33648;-83
2023/03/20 10:43:01;;;;;;;13.93;8.38;;;;;;;19.46;31.51;100401.66;5512315;32;33884;-84
2023/03/20 10:46:12;;;;;;;11.05;8.05;;;;;;;20.33;30.85;100406.66;5520883;32;34263;-84
2023/03/20 10:49:35;;;;;;;14.07;8.90;;;;;;;19.87;31.82;100398.97;5536171;32;33706;-84
2023/03/20 10:52:40;;;;;;;11.95;8.68;;;;;;;19.64;31.58;100399.22;5530035;32;34290;-84
2023/03/20 10:55:44;;;;;;;11.65;8.27;;;;;;;20.09;31.45;100390.88;5522095;32;34187;-83
2023/03/20 10:58:54;;;;;;;10.95;8.40;;;;;;;20.46;31.15;100392.91;5533968;32;34319;-83
2023/03/20 11:01:57;;;;;;;14.05;9.10;;;;;;;20.71;30.90;100387.94;5533717;32;33546;-83
2023/03/20 11:05:09;;;;;;;15.90;8.27;;;;;;;20.70;30.73;100392.50;5532317;32;32997;-83
2023/03/20 11:08:13;;;;;;;11.80;8.15;;;;;;;20.43;31.28;100380.56;5523610;32;33955;-83
2023/03/20 11:11:25;;;;;;;11.23;8.52;;;;;;;20.63;30.88;100377.03;5527364;32;34024;-83
2023/03/20 11:14:36;;;;;;;13.82;8.70;;;;;;;20.56;30.41;100371.34;5535377;32;33642;-83
2023/03/20 11:17:39;;;;;;;14.13;8.40;;;;;;;20.81;30.31;100358.31;5534166;32;34240;-82
2023/03/20 11:20:50;;;;;;;12.82;8.50;;;;;;;20.58;31.05;100362.13;5544981;32;33927;-83
2023/03/20 11:23:54;;;;;;;17.67;9.18;;;;;;;20.02;31.61;100358.28;5534376;32;33575;-87
2023/03/20 11:27:05;;;;;;;10.73;8.43;;;;;;;19.73;32.50;100356.31;5534475;32;33794;-87
2023/03/20 11:30:16;;;;;;;13.48;9.30;;;;;;;19.29;33.35;100353.84;5534291;32;34265;-83
2023/03/20 11:33:19;;;;;;;14.30;8.73;;;;;;;19.62;32.30;100360.81;5538883;32;34418;-83
2023/03/20 11:36:36;;;;;;;13.98;9.52;;;;;;;20.10;32.03;100354.91;5534404;32;34020;-83
2023/03/20 11:39:52;;;;;;;13.75;9.32;;;;;;;19.91;32.04;100346.59;5531670;32;33788;-83
2023/03/20 11:43:01;;;;;;;25.48;8.80;;;;;;;20.23;31.56;100343.84;5539581;32;33930;-83
2023/03/20 11:46:12;;;;;;;13.40;9.25;;;;;;;19.73;32.43;100343.72;5546022;32;34773;-83
2023/03/20 11:49:20;;;;;;;14.90;8.82;;;;;;;19.75;32.18;100340.88;5530853;32;35213;-83
2023/03/20 11:52:28;;;;;;;13.48;8.57;;;;;;;20.05;32.50;100336.44;5549958;32;34061;-84
2023/03/20 11:55:33;;;;;;;21.37;9.32;;;;;;;19.82;32.53;100338.50;5545302;32;34134;-86
2023/03/20 11:58:54;;;;;;;15.23;9.07;;;;;;;19.26;32.86;100339.72;5543522;32;34029;-86
2023/03/20 12:01:57;;;;;;;;;;;;;;;19.11;32.81;100333.00;5541106;32;34196;-87
2023/03/20 12:05:01;;;;;;;14.13;10.23;;;;;;;19.09;32.83;100337.62;5543311;32;34066;-87
2023/03/20 12:08:17;;;;;;;14.73;9.70;;;;;;;17.99;34.60;100326.97;5534085;32;34084;-86
2023/03/20 12:11:55;;;;;;;17.37;9.75;;;;;;;18.25;34.74;100334.72;5543779;32;33918;-85
2023/03/20 12:15:04;;;;;;;14.85;9.15;;;;;;;18.93;34.21;100321.94;5516825;32;33759;-86
2023/03/20 12:18:21;;;;;;;15.30;8.88;;;;;;;18.86;34.10;100318.97;5528076;32;35583;-85
2023/03/20 12:21:37;;;;;;;15.32;9.25;;;;;;;18.68;34.04;100321.38;5542627;32;33941;-85
2023/03/20 12:24:48;;;;;;;17.45;10.48;;;;;;;18.01;35.27;100310.75;5535476;32;34198;-85
2023/03/20 12:28:00;;;;;;;15.63;9.38;;;;;;;17.67;36.29;100322.41;5538356;32;34237;-84
2023/03/20 12:31:37;;;;;;;16.37;9.98;;;;;;;17.84;35.59;100323.72;5532620;32;33709;-84
2023/03/20 12:34:45;;;;;;;15.07;9.90;;;;;;;17.73;35.91;100308.50;5534538;32;34324;-85
2023/03/20 12:37:49;;;;;;;18.55;10.55;;;;;;;17.69;36.21;100315.09;5536134;32;34111;-85
2023/03/20 12:41:12;;;;;;;14.23;9.93;;;;;;;17.45;36.74;100315.25;5536745;32;34087;-85
2023/03/20 12:44:15;;;;;;;16.05;10.70;;;;;;;17.18;37.26;100314.63;5546247;32;34742;-84
2023/03/20 12:47:39;;;;;;;15.48;10.50;;;;;;;17.28;37.01;100313.88;5558956;32;35031;-85
2023/03/20 12:51:02;;;;;;;18.00;9.95;;;;;;;17.88;36.53;100311.75;5540149;31;35340;-86
2023/03/20 12:54:43;;;;;;;15.55;10.05;;;;;;;17.85;36.46;100306.62;5534512;32;34192;-84
2023/03/20 12:57:48;;;;;;;14.75;10.13;;;;;;;18.24;36.02;100300.81;5541960;32;34319;-84
2023/03/20 13:00:56;;;;;;;13.65;9.60;;;;;;;18.18;36.27;100301.31;5538773;32;33793;-85
2023/03/20 13:04:22;;;;;;;16.05;10.32;;;;;;;18.42;35.81;100297.56;5536357;32;35200;-84
2023/03/20 13:07:36;;;;;;;15.95;10.02;;;;;;;18.24;35.32;100299.94;5532012;32;34601;-85
2023/03/20 13:10:57;;;;;;;18.08;10.07;;;;;;;18.22;35.47;100289.38;5533132;32;34273;-85
2023/03/20 13:14:16;;;;;;;16.85;10.07;;;;;;;17.74;36.46;100299.47;5537328;32;34016;-86
2023/03/20 13:17:34;;;;;;;14.45;9.90;;;;;;;17.89;36.44;100285.78;5533687;32;33954;-86
2023/03/20 13:20:40;;;;;;;16.30;10.30;;;;;;;18.02;36.39;100282.94;5545618;32;35220;-84
2023/03/20 13:23:52;;;;;;;15.35;10.68;;;;;;;18.41;36.01;100275.22;5550157;32;34192;-84
2023/03/20 13:27:20;;;;;;;16.05;10.77;;;;;;;18.47;35.85;100267.63;5539258;32;33972;-84
2023/03/20 13:30:39;;;;;;;15.77;10.07;;;;;;;18.23;36.74;100279.47;5533379;32;34713;-84
2023/03/20 13:33:51;;;;;;;13.93;9.95;;;;;;;18.32;36.16;100273.34;5531874;32;34467;-84
2023/03/20 13:37:18;;;;;;;17.27;10.15;;;;;;;17.87;37.35;100275.19;5534302;32;34399;-84
2023/03/20 13:40:36;;;;;;;14.40;10.32;;;;;;;18.17;37.45;100272.78;5534296;32;34245;-84
2023/03/20 13:43:42;;;;;;;16.75;10.45;;;;;;;17.57;37.67;100265.97;5533980;32;34078;-84
2023/03/20 13:46:49;;;;;;;17.15;10.80;;;;;;;17.73;37.34;100262.03;5534280;32;34492;-84
2023/03/20 13:50:01;;;;;;;20.55;10.20;;;;;;;18.19;36.72;100260.06;5528855;32;33706;-84
2023/03/20 13:53:20;;;;;;;19.75;10.88;;;;;;;18.54;36.58;100253.56;5534196;32;34210;-84
2023/03/20 13:57:01;;;;;;;14.35;10.48;;;;;;;18.30;37.14;100253.78;5521572;32;34087;-90
2023/03/20 14:00:27;;;;;;;15.88;9.75;;;;;;;18.01;37.68;100249.88;5534238;32;35136;-83
2023/03/20 14:03:37;;;;;;;14.75;10.38;;;;;;;18.27;37.39;100257.63;5533794;32;32616;-84
2023/03/20 14:06:44;;;;;;;13.73;9.80;;;;;;;18.04;37.58;100262.19;5532509;32;34680;-83
2023/03/20 14:09:52;;;;;;;14.65;9.50;;;;;;;18.04;37.48;100252.31;5531904;32;33962;-83
2023/03/20 14:13:10;;;;;;;14.48;9.80;;;;;;;17.65;38.76;100254.59;5532603;32;33851;-83
2023/03/20 14:16:15;;;;;;;20.48;9.20;;;;;;;17.98;37.88;100257.31;5532418;32;34267;-83
2023/03/20 14:19:23;;;;;;;13.20;9.40;;;;;;;18.01;38.19;100249.03;5533246;32;35230;-84
2023/03/20 14:22:29;;;;;;;14.77;9.40;;;;;;;17.68;39.21;100246.31;5527801;32;34437;-84
2023/03/20 14:25:42;;;;;;;14.95;10.30;;;;;;;17.74;38.96;100245.81;5527773;32;34458;-84
2023/03/20 14:28:58;;;;;;;15.88;9.73;;;;;;;17.68;39.06;100249.00;5529654;32;33898;-85
2023/03/20 14:32:22;;;;;;;15.48;9.85;;;;;;;17.86;39.10;100248.47;5532654;32;34225;-84
2023/03/20 14:35:27;;;;;;;15.73;10.80;;;;;;;17.81;39.43;100245.31;5528305;32;33856;-86
2023/03/20 14:38:43;;;;;;;17.58;10.35;;;;;;;17.37;40.25;100246.12;5532923;32;33967;-87
2023/03/20 14:42:05;;;;;;;16.40;10.25;;;;;;;17.49;40.56;100241.59;5530843;32;34365;-86
2023/03/20 14:45:27;;;;;;;15.75;10.13;;;;;;;17.70;40.36;100244.34;5530874;32;34867;-86
2023/03/20 14:48:43;;;;;;;20.52;10.60;;;;;;;17.25;41.53;100237.25;5529279;32;34511;-84
2023/03/20 14:51:49;;;;;;;15.77;10.07;;;;;;;17.59;41.09;100239.00;5526331;32;34544;-84
2023/03/20 14:54:53;;;;;;;20.75;10.13;;;;;;;17.86;40.52;100240.44;5528840;32;33583;-84
2023/03/20 14:58:34;;;;;;;18.92;10.32;;;;;;;18.09;40.07;100232.31;5530699;32;34677;-84
2023/03/20 15:01:37;;;;;;;15.68;10.48;;;;;;;17.54;41.09;100234.03;5531478;32;34839;-84
2023/03/20 15:04:41;;;;;;;18.02;10.60;;;;;;;17.57;41.60;100235.62;5532333;32;34137;-84
2023/03/20 15:07:44;;;;;;;14.80;10.23;;;;;;;17.41;41.58;100234.19;5532202;32;34688;-84
2023/03/20 15:10:54;;;;;;;16.37;10.07;;;;;;;17.10;42.20;100225.94;5531910;32;34185;-84
2023/03/20 15:14:02;;;;;;;18.10;11.20;;;;;;;17.36;42.15;100225.66;5531225;32;34043;-88
2023/03/20 15:17:06;;;;;;;15.55;10.32;;;;;;;17.48;42.13;100222.00;5525883;32;33508;-84
2023/03/20 15:20:18;;;;;;;14.13;9.90;;;;;;;17.43;42.15;100220.66;5529653;32;33949;-84
2023/03/20 15:23:20;;;;;;;17.58;9.93;;;;;;;17.40;42.17;100219.06;5530085;32;33842;-84
2023/03/20 15:26:25;;;;;;;14.02;9.70;;;;;;;17.09;42.90;100218.84;5531911;32;34072;-85
2023/03/20 15:29:31;;;;;;;14.25;9.55;;;;;;;17.45;43.34;100213.34;5533938;32;33859;-88
2023/03/20 15:32:34;;;;;;;14.98;9.30;;;;;;;17.13;43.31;100222.12;5535983;32;34124;-84
2023/03/20 15:35:37;;;;;;;14.77;9.20;;;;;;;16.97;43.79;100223.34;5537857;32;34045;-84
2023/03/20 15:38:42;;;;;;;11.38;8.88;;;;;;;16.80;44.42;100227.37;5534719;32;34813;-84
2023/03/20 15:41:50;;;;;;;10.75;8.85;;;;;;;17.03;44.09;100222.03;5538443;32;34915;-84
2023/03/20 15:44:54;;;;;;;11.25;8.38;;;;;;;16.87;44.59;100225.03;5534395;32;34785;-84
2023/03/20 15:48:05;;;;;;;13.15;7.97;;;;;;;16.95;44.59;100228.00;5535235;32;33863;-84
2023/03/20 15:51:10;;;;;;;12.93;8.23;;;;;;;16.91;45.06;100226.50;5535027;32;34880;-84
2023/03/20 15:54:15;;;;;;;14.32;8.30;;;;;;;16.75;45.62;100221.50;5534503;32;34331;-85
2023/03/20 15:57:40;;;;;;;9.75;7.93;;;;;;;16.98;45.95;100227.72;5532519;32;34381;-84
2023/03/20 16:00:48;;;;;;;12.98;7.87;;;;;;;17.16;44.86;100233.50;5533529;32;34094;-84
2023/03/20 16:03:56;;;;;;;9.98;8.05;;;;;;;17.19;45.15;100216.28;5536252;32;34704;-85
2023/03/20 16:07:00;;;;;;;10.35;7.60;;;;;;;16.76;46.10;100217.84;5536199;32;35140;-85
2023/03/20 16:10:15;;;;;;;10.27;7.80;;;;;;;16.67;46.87;100219.44;5535062;32;33840;-85
2023/03/20 16:13:18;;;;;;;11.65;8.07;;;;;;;16.70;47.12;100220.03;5533795;32;34698;-85
2023/03/20 16:16:23;;;;;;;10.52;7.93;;;;;;;16.74;46.96;100227.84;5530542;32;35495;-84
2023/03/20 16:19:27;;;;;;;12.02;7.72;;;;;;;16.77;46.82;100232.94;5532570;32;33947;-85
2023/03/20 16:22:32;;;;;;;12.73;7.47;;;;;;;16.65;46.81;100238.28;5532627;32;33827;-85
2023/03/20 16:25:36;;;;;;;14.43;7.75;;;;;;;16.36;47.62;100235.19;5531799;32;34320;-85
2023/03/20 16:28:39;;;;;;;10.25;7.30;;;;;;;16.29;48.00;100235.66;5532317;32;34231;-84
2023/03/20 16:31:52;;;;;;;12.57;7.62;;;;;;;16.18;48.60;100235.62;5533129;32;34837;-88
2023/03/20 16:34:58;;;;;;;12.82;7.80;;;;;;;16.22;48.71;100242.47;5533416;32;34495;-85
